sensor_id;sensor_type;location;lat;lon;timestamp;P1;durP1;ratioP1;P2;durP2;ratioP2
70866;SDS011;58487;53.474;49.470;2023-03-11T00:02:20;6.43;;;1.83;;
70866;SDS011;58487;53.474;49.470;2023-03-11T00:04:46;3.70;;;1.60;;
70866;SDS011;58487;53.474;49.470;2023-03-11T00:07:12;4.13;;;1.63;;
70866;SDS011;58487;53.474;49.470;2023-03-11T00:09:38;5.80;;;1.63;;
70866;SDS011;58487;53.474;49.470;2023-03-11T00:12:04;3.50;;;1.40;;
70866;SDS011;58487;53.474;49.470;2023-03-11T00:14:31;6.88;;;2.03;;
70866;SDS011;58487;53.474;49.470;2023-03-11T00:16:57;4.63;;;1.70;;
70866;SDS011;58487;53.474;49.470;2023-03-11T00:19:23;4.43;;;1.67;;
70866;SDS011;58487;53.474;49.470;2023-03-11T00:21:49;6.35;;;1.85;;
70866;SDS011;58487;53.474;49.470;2023-03-11T00:24:15;5.97;;;1.90;;
70866;SDS011;58487;53.474;49.470;2023-03-11T00:26:41;8.23;;;1.80;;
70866;SDS011;58487;53.474;49.470;2023-03-11T00:29:07;4.57;;;1.75;;
70866;SDS011;58487;53.474;49.470;2023-03-11T00:31:34;5.40;;;1.80;;
70866;SDS011;58487;53.474;49.470;2023-03-11T00:34:00;5.43;;;2.00;;
70866;SDS011;58487;53.474;49.470;2023-03-11T00:36:30;4.20;;;1.65;;
70866;SDS011;58487;53.474;49.470;2023-03-11T00:38:58;4.57;;;1.90;;
70866;SDS011;58487;53.474;49.470;2023-03-11T00:41:26;5.57;;;2.00;;
70866;SDS011;58487;53.474;49.470;2023-03-11T00:43:53;7.00;;;1.90;;
70866;SDS011;58487;53.474;49.470;2023-03-11T00:46:19;4.38;;;1.90;;
70866;SDS011;58487;53.474;49.470;2023-03-11T00:48:45;5.78;;;1.70;;
70866;SDS011;58487;53.474;49.470;2023-03-11T00:51:14;5.93;;;1.80;;
70866;SDS011;58487;53.474;49.470;2023-03-11T00:53:41;4.53;;;1.40;;
70866;SDS011;58487;53.474;49.470;2023-03-11T00:56:08;5.80;;;1.80;;
70866;SDS011;58487;53.474;49.470;2023-03-11T00:58:35;3.97;;;1.50;;
70866;SDS011;58487;53.474;49.470;2023-03-11T01:01:08;5.15;;;1.77;;
70866;SDS011;58487;53.474;49.470;2023-03-11T01:03:37;4.15;;;1.50;;
70866;SDS011;58487;53.474;49.470;2023-03-11T01:06:03;5.22;;;1.63;;
70866;SDS011;58487;53.474;49.470;2023-03-11T01:08:30;5.30;;;1.90;;
70866;SDS011;58487;53.474;49.470;2023-03-11T01:10:57;4.35;;;1.63;;
70866;SDS011;58487;53.474;49.470;2023-03-11T01:13:24;4.50;;;1.65;;
70866;SDS011;58487;53.474;49.470;2023-03-11T01:15:51;5.82;;;1.92;;
70866;SDS011;58487;53.474;49.470;2023-03-11T01:18:18;5.07;;;2.03;;
70866;SDS011;58487;53.474;49.470;2023-03-11T01:20:45;3.97;;;1.50;;
70866;SDS011;58487;53.474;49.470;2023-03-11T01:23:12;5.30;;;1.75;;
70866;SDS011;58487;53.474;49.470;2023-03-11T01:25:43;6.43;;;1.70;;
70866;SDS011;58487;53.474;49.470;2023-03-11T01:28:09;4.00;;;1.58;;
70866;SDS011;58487;53.474;49.470;2023-03-11T01:30:36;4.68;;;1.70;;
70866;SDS011;58487;53.474;49.470;2023-03-11T01:33:04;4.77;;;1.80;;
70866;SDS011;58487;53.474;49.470;2023-03-11T01:35:31;5.38;;;1.85;;
70866;SDS011;58487;53.474;49.470;2023-03-11T01:37:58;4.93;;;1.95;;
70866;SDS011;58487;53.474;49.470;2023-03-11T01:40:31;4.40;;;1.73;;
70866;SDS011;58487;53.474;49.470;2023-03-11T01:43:03;6.00;;;1.85;;
70866;SDS011;58487;53.474;49.470;2023-03-11T01:45:37;4.93;;;1.97;;
70866;SDS011;58487;53.474;49.470;2023-03-11T01:48:05;5.40;;;2.05;;
70866;SDS011;58487;53.474;49.470;2023-03-11T01:50:38;4.32;;;1.77;;
70866;SDS011;58487;53.474;49.470;2023-03-11T01:53:08;4.85;;;1.77;;
70866;SDS011;58487;53.474;49.470;2023-03-11T01:55:36;4.70;;;1.77;;
70866;SDS011;58487;53.474;49.470;2023-03-11T01:58:04;4.67;;;1.77;;
70866;SDS011;58487;53.474;49.470;2023-03-11T02:00:33;5.57;;;2.00;;
70866;SDS011;58487;53.474;49.470;2023-03-11T02:03:01;5.45;;;1.90;;
70866;SDS011;58487;53.474;49.470;2023-03-11T02:05:31;4.47;;;1.65;;
70866;SDS011;58487;53.474;49.470;2023-03-11T02:07:59;5.13;;;2.10;;
70866;SDS011;58487;53.474;49.470;2023-03-11T02:10:26;5.10;;;1.90;;
70866;SDS011;58487;53.474;49.470;2023-03-11T02:12:52;4.00;;;1.67;;
70866;SDS011;58487;53.474;49.470;2023-03-11T02:15:18;4.03;;;1.65;;
70866;SDS011;58487;53.474;49.470;2023-03-11T02:17:45;4.43;;;1.80;;
70866;SDS011;58487;53.474;49.470;2023-03-11T02:23:08;3.97;;;1.50;;
70866;SDS011;58487;53.474;49.470;2023-03-11T02:28:17;4.43;;;1.60;;
70866;SDS011;58487;53.474;49.470;2023-03-11T02:30:46;4.82;;;1.85;;
70866;SDS011;58487;53.474;49.470;2023-03-11T02:33:13;3.75;;;1.50;;
70866;SDS011;58487;53.474;49.470;2023-03-11T02:35:40;4.50;;;1.93;;
70866;SDS011;58487;53.474;49.470;2023-03-11T02:38:06;4.55;;;1.55;;
70866;SDS011;58487;53.474;49.470;2023-03-11T02:40:34;3.67;;;1.42;;
70866;SDS011;58487;53.474;49.470;2023-03-11T02:43:12;4.85;;;1.45;;
70866;SDS011;58487;53.474;49.470;2023-03-11T02:45:40;3.90;;;1.40;;
70866;SDS011;58487;53.474;49.470;2023-03-11T02:48:11;4.40;;;1.40;;
70866;SDS011;58487;53.474;49.470;2023-03-11T02:50:38;3.67;;;1.27;;
70866;SDS011;58487;53.474;49.470;2023-03-11T02:53:06;3.60;;;1.40;;
70866;SDS011;58487;53.474;49.470;2023-03-11T02:55:32;4.70;;;1.73;;
70866;SDS011;58487;53.474;49.470;2023-03-11T02:57:59;3.65;;;1.50;;
70866;SDS011;58487;53.474;49.470;2023-03-11T03:00:25;4.53;;;1.50;;
70866;SDS011;58487;53.474;49.470;2023-03-11T03:02:51;5.50;;;2.03;;
70866;SDS011;58487;53.474;49.470;2023-03-11T03:05:19;3.55;;;1.48;;
70866;SDS011;58487;53.474;49.470;2023-03-11T03:07:47;4.25;;;1.60;;
70866;SDS011;58487;53.474;49.470;2023-03-11T03:10:14;4.72;;;1.88;;
70866;SDS011;58487;53.474;49.470;2023-03-11T03:12:42;4.57;;;1.80;;
70866;SDS011;58487;53.474;49.470;2023-03-11T03:15:08;5.88;;;2.15;;
70866;SDS011;58487;53.474;49.470;2023-03-11T03:17:35;6.15;;;2.30;;
70866;SDS011;58487;53.474;49.470;2023-03-11T03:20:02;5.78;;;2.65;;
70866;SDS011;58487;53.474;49.470;2023-03-11T03:22:32;4.88;;;1.88;;
70866;SDS011;58487;53.474;49.470;2023-03-11T03:24:58;5.60;;;2.20;;
70866;SDS011;58487;53.474;49.470;2023-03-11T03:27:24;5.38;;;2.17;;
70866;SDS011;58487;53.474;49.470;2023-03-11T03:29:50;6.68;;;2.50;;
70866;SDS011;58487;53.474;49.470;2023-03-11T03:32:16;7.50;;;2.47;;
70866;SDS011;58487;53.474;49.470;2023-03-11T03:34:42;6.93;;;2.60;;
70866;SDS011;58487;53.474;49.470;2023-03-11T03:37:09;7.53;;;2.37;;
70866;SDS011;58487;53.474;49.470;2023-03-11T03:39:35;7.50;;;2.30;;
70866;SDS011;58487;53.474;49.470;2023-03-11T03:42:01;5.85;;;2.20;;
70866;SDS011;58487;53.474;49.470;2023-03-11T03:44:28;5.38;;;2.28;;
70866;SDS011;58487;53.474;49.470;2023-03-11T03:46:55;4.60;;;1.90;;
70866;SDS011;58487;53.474;49.470;2023-03-11T03:49:21;5.70;;;2.30;;
70866;SDS011;58487;53.474;49.470;2023-03-11T03:51:47;5.70;;;2.22;;
70866;SDS011;58487;53.474;49.470;2023-03-11T03:54:14;7.22;;;2.60;;
70866;SDS011;58487;53.474;49.470;2023-03-11T03:56:40;5.85;;;2.50;;
70866;SDS011;58487;53.474;49.470;2023-03-11T03:59:07;6.28;;;2.60;;
70866;SDS011;58487;53.474;49.470;2023-03-11T04:01:34;6.50;;;2.40;;
70866;SDS011;58487;53.474;49.470;2023-03-11T04:04:00;5.68;;;2.10;;
70866;SDS011;58487;53.474;49.470;2023-03-11T04:06:26;5.55;;;2.20;;
70866;SDS011;58487;53.474;49.470;2023-03-11T04:08:53;5.47;;;2.33;;
70866;SDS011;58487;53.474;49.470;2023-03-11T04:11:19;6.13;;;2.40;;
70866;SDS011;58487;53.474;49.470;2023-03-11T04:13:46;7.00;;;2.50;;
70866;SDS011;58487;53.474;49.470;2023-03-11T04:16:17;4.82;;;1.98;;
70866;SDS011;58487;53.474;49.470;2023-03-11T04:18:45;5.72;;;2.20;;
70866;SDS011;58487;53.474;49.470;2023-03-11T04:21:12;5.68;;;2.30;;
70866;SDS011;58487;53.474;49.470;2023-03-11T04:23:38;5.53;;;2.00;;
70866;SDS011;58487;53.474;49.470;2023-03-11T04:26:05;5.37;;;2.00;;
70866;SDS011;58487;53.474;49.470;2023-03-11T04:28:31;4.00;;;1.20;;
70866;SDS011;58487;53.474;49.470;2023-03-11T04:30:58;4.50;;;1.83;;
70866;SDS011;58487;53.474;49.470;2023-03-11T04:33:24;5.03;;;2.00;;
70866;SDS011;58487;53.474;49.470;2023-03-11T04:35:51;6.60;;;2.50;;
70866;SDS011;58487;53.474;49.470;2023-03-11T04:38:17;4.90;;;1.80;;
70866;SDS011;58487;53.474;49.470;2023-03-11T04:40:43;6.38;;;2.17;;
70866;SDS011;58487;53.474;49.470;2023-03-11T04:43:09;6.13;;;2.13;;
70866;SDS011;58487;53.474;49.470;2023-03-11T04:45:39;5.38;;;2.00;;
70866;SDS011;58487;53.474;49.470;2023-03-11T04:48:07;4.63;;;1.80;;
70866;SDS011;58487;53.474;49.470;2023-03-11T04:50:33;4.37;;;1.77;;
70866;SDS011;58487;53.474;49.470;2023-03-11T04:52:59;6.68;;;2.50;;
70866;SDS011;58487;53.474;49.470;2023-03-11T04:55:25;8.50;;;3.33;;
70866;SDS011;58487;53.474;49.470;2023-03-11T04:57:51;5.40;;;2.45;;
70866;SDS011;58487;53.474;49.470;2023-03-11T05:00:17;8.67;;;3.17;;
70866;SDS011;58487;53.474;49.470;2023-03-11T05:02:49;4.53;;;1.83;;
70866;SDS011;58487;53.474;49.470;2023-03-11T05:05:15;4.75;;;1.80;;
70866;SDS011;58487;53.474;49.470;2023-03-11T05:07:43;5.68;;;2.67;;
70866;SDS011;58487;53.474;49.470;2023-03-11T05:10:10;5.57;;;2.40;;
70866;SDS011;58487;53.474;49.470;2023-03-11T05:12:36;7.85;;;2.97;;
70866;SDS011;58487;53.474;49.470;2023-03-11T05:15:02;7.30;;;3.00;;
70866;SDS011;58487;53.474;49.470;2023-03-11T05:17:28;8.73;;;3.67;;
70866;SDS011;58487;53.474;49.470;2023-03-11T05:19:54;8.95;;;3.30;;
70866;SDS011;58487;53.474;49.470;2023-03-11T05:22:21;7.90;;;3.80;;
70866;SDS011;58487;53.474;49.470;2023-03-11T05:24:48;9.30;;;3.85;;
70866;SDS011;58487;53.474;49.470;2023-03-11T05:27:14;7.10;;;3.03;;
70866;SDS011;58487;53.474;49.470;2023-03-11T05:29:43;14.20;;;5.35;;
70866;SDS011;58487;53.474;49.470;2023-03-11T05:32:10;10.77;;;3.88;;
70866;SDS011;58487;53.474;49.470;2023-03-11T05:34:37;11.95;;;4.43;;
70866;SDS011;58487;53.474;49.470;2023-03-11T05:37:04;15.10;;;5.18;;
70866;SDS011;58487;53.474;49.470;2023-03-11T05:39:30;10.27;;;4.60;;
70866;SDS011;58487;53.474;49.470;2023-03-11T05:41:56;13.35;;;5.15;;
70866;SDS011;58487;53.474;49.470;2023-03-11T05:44:22;10.23;;;4.20;;
70866;SDS011;58487;53.474;49.470;2023-03-11T05:46:48;10.02;;;3.60;;
70866;SDS011;58487;53.474;49.470;2023-03-11T05:49:14;11.05;;;3.72;;
70866;SDS011;58487;53.474;49.470;2023-03-11T05:51:40;6.03;;;2.10;;
70866;SDS011;58487;53.474;49.470;2023-03-11T05:54:06;9.45;;;3.70;;
70866;SDS011;58487;53.474;49.470;2023-03-11T05:56:45;7.13;;;2.45;;
70866;SDS011;58487;53.474;49.470;2023-03-11T05:59:15;5.47;;;2.30;;
70866;SDS011;58487;53.474;49.470;2023-03-11T06:01:42;5.90;;;2.47;;
70866;SDS011;58487;53.474;49.470;2023-03-11T06:04:08;6.60;;;2.58;;
70866;SDS011;58487;53.474;49.470;2023-03-11T06:06:35;5.78;;;1.65;;
70866;SDS011;58487;53.474;49.470;2023-03-11T06:09:01;7.47;;;2.60;;
70866;SDS011;58487;53.474;49.470;2023-03-11T06:11:28;5.50;;;2.40;;
70866;SDS011;58487;53.474;49.470;2023-03-11T06:13:55;4.93;;;2.00;;
70866;SDS011;58487;53.474;49.470;2023-03-11T06:16:22;6.75;;;1.80;;
70866;SDS011;58487;53.474;49.470;2023-03-11T06:18:49;5.78;;;2.67;;
70866;SDS011;58487;53.474;49.470;2023-03-11T06:21:16;4.82;;;2.17;;
70866;SDS011;58487;53.474;49.470;2023-03-11T06:23:44;5.35;;;2.20;;
70866;SDS011;58487;53.474;49.470;2023-03-11T06:26:14;5.40;;;2.40;;
70866;SDS011;58487;53.474;49.470;2023-03-11T06:28:43;5.63;;;2.65;;
70866;SDS011;58487;53.474;49.470;2023-03-11T06:31:11;6.78;;;2.67;;
70866;SDS011;58487;53.474;49.470;2023-03-11T06:33:40;6.38;;;2.90;;
70866;SDS011;58487;53.474;49.470;2023-03-11T06:36:06;7.32;;;2.83;;
70866;SDS011;58487;53.474;49.470;2023-03-11T06:38:33;5.93;;;2.63;;
70866;SDS011;58487;53.474;49.470;2023-03-11T06:41:00;7.90;;;3.55;;
70866;SDS011;58487;53.474;49.470;2023-03-11T06:43:27;7.93;;;3.40;;
70866;SDS011;58487;53.474;49.470;2023-03-11T06:45:53;7.30;;;3.30;;
70866;SDS011;58487;53.474;49.470;2023-03-11T06:48:19;9.57;;;3.58;;
70866;SDS011;58487;53.474;49.470;2023-03-11T06:50:58;9.27;;;3.60;;
70866;SDS011;58487;53.474;49.470;2023-03-11T06:53:25;8.00;;;2.65;;
70866;SDS011;58487;53.474;49.470;2023-03-11T06:55:56;13.35;;;3.70;;
70866;SDS011;58487;53.474;49.470;2023-03-11T06:58:31;7.95;;;3.22;;
70866;SDS011;58487;53.474;49.470;2023-03-11T07:00:59;9.02;;;3.80;;
70866;SDS011;58487;53.474;49.470;2023-03-11T07:03:26;8.37;;;3.40;;
70866;SDS011;58487;53.474;49.470;2023-03-11T07:05:53;8.75;;;3.08;;
70866;SDS011;58487;53.474;49.470;2023-03-11T07:08:19;12.68;;;4.40;;
70866;SDS011;58487;53.474;49.470;2023-03-11T07:10:46;9.70;;;4.07;;
70866;SDS011;58487;53.474;49.470;2023-03-11T07:13:13;14.55;;;5.05;;
70866;SDS011;58487;53.474;49.470;2023-03-11T07:15:39;14.37;;;5.00;;
70866;SDS011;58487;53.474;49.470;2023-03-11T07:18:05;11.57;;;4.88;;
70866;SDS011;58487;53.474;49.470;2023-03-11T07:20:32;13.05;;;4.72;;
70866;SDS011;58487;53.474;49.470;2023-03-11T07:22:58;10.70;;;4.78;;
70866;SDS011;58487;53.474;49.470;2023-03-11T07:25:24;11.25;;;5.07;;
70866;SDS011;58487;53.474;49.470;2023-03-11T07:27:50;7.53;;;3.10;;
70866;SDS011;58487;53.474;49.470;2023-03-11T07:30:17;7.63;;;3.20;;
70866;SDS011;58487;53.474;49.470;2023-03-11T07:32:46;7.68;;;3.00;;
70866;SDS011;58487;53.474;49.470;2023-03-11T07:35:12;6.70;;;2.70;;
70866;SDS011;58487;53.474;49.470;2023-03-11T07:37:38;7.40;;;2.95;;
70866;SDS011;58487;53.474;49.470;2023-03-11T07:40:05;5.63;;;2.80;;
70866;SDS011;58487;53.474;49.470;2023-03-11T07:42:32;5.60;;;2.58;;
70866;SDS011;58487;53.474;49.470;2023-03-11T07:44:59;7.18;;;3.17;;
70866;SDS011;58487;53.474;49.470;2023-03-11T07:47:25;5.93;;;2.90;;
70866;SDS011;58487;53.474;49.470;2023-03-11T07:49:51;6.25;;;2.80;;
70866;SDS011;58487;53.474;49.470;2023-03-11T07:52:17;5.60;;;2.70;;
70866;SDS011;58487;53.474;49.470;2023-03-11T07:54:44;5.90;;;2.80;;
70866;SDS011;58487;53.474;49.470;2023-03-11T07:57:11;6.10;;;2.90;;
70866;SDS011;58487;53.474;49.470;2023-03-11T07:59:41;5.15;;;2.40;;
70866;SDS011;58487;53.474;49.470;2023-03-11T08:02:08;6.40;;;3.00;;
70866;SDS011;58487;53.474;49.470;2023-03-11T08:04:35;6.70;;;3.27;;
70866;SDS011;58487;53.474;49.470;2023-03-11T08:07:01;6.32;;;2.97;;
70866;SDS011;58487;53.474;49.470;2023-03-11T08:09:27;6.00;;;2.90;;
70866;SDS011;58487;53.474;49.470;2023-03-11T08:11:53;4.78;;;1.88;;
70866;SDS011;58487;53.474;49.470;2023-03-11T08:14:19;5.00;;;1.97;;
70866;SDS011;58487;53.474;49.470;2023-03-11T08:16:45;6.53;;;3.03;;
70866;SDS011;58487;53.474;49.470;2023-03-11T08:19:11;5.15;;;2.15;;
70866;SDS011;58487;53.474;49.470;2023-03-11T08:21:38;5.57;;;2.40;;
70866;SDS011;58487;53.474;49.470;2023-03-11T08:24:04;6.05;;;2.58;;
70866;SDS011;58487;53.474;49.470;2023-03-11T08:26:31;7.43;;;3.13;;
70866;SDS011;58487;53.474;49.470;2023-03-11T08:28:57;7.60;;;3.37;;
70866;SDS011;58487;53.474;49.470;2023-03-11T08:31:24;6.43;;;3.10;;
70866;SDS011;58487;53.474;49.470;2023-03-11T08:33:56;8.55;;;3.33;;
70866;SDS011;58487;53.474;49.470;2023-03-11T08:36:27;12.50;;;4.75;;
70866;SDS011;58487;53.474;49.470;2023-03-11T08:38:53;11.02;;;5.15;;
70866;SDS011;58487;53.474;49.470;2023-03-11T08:41:19;17.73;;;6.47;;
70866;SDS011;58487;53.474;49.470;2023-03-11T08:43:45;18.88;;;7.00;;
70866;SDS011;58487;53.474;49.470;2023-03-11T08:46:13;11.88;;;5.40;;
70866;SDS011;58487;53.474;49.470;2023-03-11T08:48:46;13.63;;;5.07;;
70866;SDS011;58487;53.474;49.470;2023-03-11T08:51:12;16.33;;;6.55;;
70866;SDS011;58487;53.474;49.470;2023-03-11T08:53:40;16.07;;;6.60;;
70866;SDS011;58487;53.474;49.470;2023-03-11T08:56:07;12.45;;;4.75;;
70866;SDS011;58487;53.474;49.470;2023-03-11T08:58:33;11.15;;;5.35;;
70866;SDS011;58487;53.474;49.470;2023-03-11T09:00:59;13.85;;;6.50;;
70866;SDS011;58487;53.474;49.470;2023-03-11T09:03:25;14.48;;;5.60;;
70866;SDS011;58487;53.474;49.470;2023-03-11T09:05:58;13.83;;;6.23;;
70866;SDS011;58487;53.474;49.470;2023-03-11T09:08:33;16.40;;;6.20;;
70866;SDS011;58487;53.474;49.470;2023-03-11T09:11:00;16.83;;;6.38;;
70866;SDS011;58487;53.474;49.470;2023-03-11T09:13:26;13.18;;;5.53;;
70866;SDS011;58487;53.474;49.470;2023-03-11T09:15:53;12.10;;;4.90;;
70866;SDS011;58487;53.474;49.470;2023-03-11T09:18:19;10.90;;;4.87;;
70866;SDS011;58487;53.474;49.470;2023-03-11T09:20:45;12.45;;;4.97;;
70866;SDS011;58487;53.474;49.470;2023-03-11T09:23:13;14.57;;;5.25;;
70866;SDS011;58487;53.474;49.470;2023-03-11T09:25:40;11.90;;;5.10;;
70866;SDS011;58487;53.474;49.470;2023-03-11T09:28:06;13.77;;;5.75;;
70866;SDS011;58487;53.474;49.470;2023-03-11T09:30:33;16.27;;;5.23;;
70866;SDS011;58487;53.474;49.470;2023-03-11T09:33:00;13.75;;;5.35;;
70866;SDS011;58487;53.474;49.470;2023-03-11T09:35:26;10.80;;;4.30;;
70866;SDS011;58487;53.474;49.470;2023-03-11T09:37:52;12.73;;;5.20;;
70866;SDS011;58487;53.474;49.470;2023-03-11T09:40:19;10.38;;;3.67;;
70866;SDS011;58487;53.474;49.470;2023-03-11T09:45:25;11.88;;;4.88;;
70866;SDS011;58487;53.474;49.470;2023-03-11T09:55:53;11.20;;;5.17;;
70866;SDS011;58487;53.474;49.470;2023-03-11T10:01:00;14.88;;;6.15;;
70866;SDS011;58487;53.474;49.470;2023-03-11T10:03:34;11.30;;;4.85;;
70866;SDS011;58487;53.474;49.470;2023-03-11T10:06:07;11.18;;;4.60;;
70866;SDS011;58487;53.474;49.470;2023-03-11T10:08:42;11.17;;;4.50;;
70866;SDS011;58487;53.474;49.470;2023-03-11T10:11:15;9.27;;;4.57;;
70866;SDS011;58487;53.474;49.470;2023-03-11T10:16:53;12.40;;;5.72;;
70866;SDS011;58487;53.474;49.470;2023-03-11T10:19:22;12.50;;;5.88;;
70866;SDS011;58487;53.474;49.470;2023-03-11T10:30:35;8.30;;;4.22;;
70866;SDS011;58487;53.474;49.470;2023-03-11T10:35:58;11.37;;;5.60;;
70866;SDS011;58487;53.474;49.470;2023-03-11T10:38:41;10.13;;;5.18;;
70866;SDS011;58487;53.474;49.470;2023-03-11T10:41:56;9.38;;;5.13;;
70866;SDS011;58487;53.474;49.470;2023-03-11T10:44:05;17.63;;;5.47;;
70866;SDS011;58487;53.474;49.470;2023-03-11T10:46:37;8.13;;;5.00;;
70866;SDS011;58487;53.474;49.470;2023-03-11T10:49:04;8.80;;;4.83;;
70866;SDS011;58487;53.474;49.470;2023-03-11T10:51:38;8.80;;;4.55;;
70866;SDS011;58487;53.474;49.470;2023-03-11T10:54:05;8.35;;;5.00;;
70866;SDS011;58487;53.474;49.470;2023-03-11T10:59:17;9.68;;;5.43;;
70866;SDS011;58487;53.474;49.470;2023-03-11T11:01:57;9.57;;;5.70;;
70866;SDS011;58487;53.474;49.470;2023-03-11T11:04:35;8.70;;;4.95;;
70866;SDS011;58487;53.474;49.470;2023-03-11T11:07:20;9.40;;;4.82;;
70866;SDS011;58487;53.474;49.470;2023-03-11T11:10:37;9.88;;;4.93;;
70866;SDS011;58487;53.474;49.470;2023-03-11T11:15:35;9.40;;;5.07;;
70866;SDS011;58487;53.474;49.470;2023-03-11T11:18:05;9.50;;;5.38;;
70866;SDS011;58487;53.474;49.470;2023-03-11T11:23:45;9.50;;;5.65;;
70866;SDS011;58487;53.474;49.470;2023-03-11T11:28:46;10.47;;;6.47;;
70866;SDS011;58487;53.474;49.470;2023-03-11T11:31:42;13.73;;;6.75;;
70866;SDS011;58487;53.474;49.470;2023-03-11T11:34:26;10.95;;;6.28;;
70866;SDS011;58487;53.474;49.470;2023-03-11T11:36:58;12.43;;;6.68;;
70866;SDS011;58487;53.474;49.470;2023-03-11T11:39:29;11.05;;;5.88;;
70866;SDS011;58487;53.474;49.470;2023-03-11T11:42:18;13.83;;;6.23;;
70866;SDS011;58487;53.474;49.470;2023-03-11T11:44:46;12.07;;;6.18;;
70866;SDS011;58487;53.474;49.470;2023-03-11T11:47:20;13.00;;;6.20;;
70866;SDS011;58487;53.474;49.470;2023-03-11T11:49:55;10.90;;;6.13;;
70866;SDS011;58487;53.474;49.470;2023-03-11T11:52:44;11.50;;;5.90;;
70866;SDS011;58487;53.474;49.470;2023-03-11T11:55:17;11.33;;;5.57;;
70866;SDS011;58487;53.474;49.470;2023-03-11T11:57:47;11.93;;;6.35;;
70866;SDS011;58487;53.474;49.470;2023-03-11T12:00:18;8.70;;;5.35;;
70866;SDS011;58487;53.474;49.470;2023-03-11T12:03:15;8.90;;;5.50;;
70866;SDS011;58487;53.474;49.470;2023-03-11T12:06:00;9.02;;;5.25;;
70866;SDS011;58487;53.474;49.470;2023-03-11T12:11:10;8.88;;;5.35;;
70866;SDS011;58487;53.474;49.470;2023-03-11T12:27:30;7.53;;;4.45;;
70866;SDS011;58487;53.474;49.470;2023-03-11T12:29:59;7.97;;;4.15;;
70866;SDS011;58487;53.474;49.470;2023-03-11T12:32:50;8.35;;;4.57;;
70866;SDS011;58487;53.474;49.470;2023-03-11T12:35:53;8.00;;;4.40;;
70866;SDS011;58487;53.474;49.470;2023-03-11T12:41:06;8.10;;;4.57;;
70866;SDS011;58487;53.474;49.470;2023-03-11T12:46:05;8.65;;;5.10;;
70866;SDS011;58487;53.474;49.470;2023-03-11T12:48:43;7.47;;;4.50;;
70866;SDS011;58487;53.474;49.470;2023-03-11T12:54:19;8.15;;;4.57;;
70866;SDS011;58487;53.474;49.470;2023-03-11T12:56:56;8.45;;;4.53;;
70866;SDS011;58487;53.474;49.470;2023-03-11T13:08:14;8.65;;;4.45;;
70866;SDS011;58487;53.474;49.470;2023-03-11T13:10:44;7.53;;;4.03;;
70866;SDS011;58487;53.474;49.470;2023-03-11T13:13:22;8.32;;;4.43;;
70866;SDS011;58487;53.474;49.470;2023-03-11T13:18:40;7.68;;;3.78;;
70866;SDS011;58487;53.474;49.470;2023-03-11T13:23:52;8.00;;;4.10;;
70866;SDS011;58487;53.474;49.470;2023-03-11T13:26:41;7.38;;;4.00;;
70866;SDS011;58487;53.474;49.470;2023-03-11T13:42:46;8.03;;;4.40;;
70866;SDS011;58487;53.474;49.470;2023-03-11T13:45:28;8.85;;;5.03;;
70866;SDS011;58487;53.474;49.470;2023-03-11T13:48:00;9.32;;;4.13;;
70866;SDS011;58487;53.474;49.470;2023-03-11T13:50:46;9.07;;;4.03;;
70866;SDS011;58487;53.474;49.470;2023-03-11T13:53:20;8.05;;;4.50;;
70866;SDS011;58487;53.474;49.470;2023-03-11T13:55:50;7.33;;;4.17;;
70866;SDS011;58487;53.474;49.470;2023-03-11T13:58:21;8.57;;;4.68;;
70866;SDS011;58487;53.474;49.470;2023-03-11T14:00:53;8.45;;;4.00;;
70866;SDS011;58487;53.474;49.470;2023-03-11T14:03:20;8.90;;;4.60;;
70866;SDS011;58487;53.474;49.470;2023-03-11T14:06:12;9.38;;;4.85;;
70866;SDS011;58487;53.474;49.470;2023-03-11T14:08:38;8.73;;;4.23;;
70866;SDS011;58487;53.474;49.470;2023-03-11T14:13:42;8.70;;;4.30;;
70866;SDS011;58487;53.474;49.470;2023-03-11T14:16:24;8.50;;;4.75;;
70866;SDS011;58487;53.474;49.470;2023-03-11T14:19:14;9.68;;;4.95;;
70866;SDS011;58487;53.474;49.470;2023-03-11T14:21:42;9.57;;;4.53;;
70866;SDS011;58487;53.474;49.470;2023-03-11T14:24:20;8.35;;;4.50;;
70866;SDS011;58487;53.474;49.470;2023-03-11T14:26:50;9.10;;;4.20;;
70866;SDS011;58487;53.474;49.470;2023-03-11T14:29:27;10.32;;;4.30;;
70866;SDS011;58487;53.474;49.470;2023-03-11T14:32:00;9.38;;;4.40;;
70866;SDS011;58487;53.474;49.470;2023-03-11T14:34:42;10.60;;;4.80;;
70866;SDS011;58487;53.474;49.470;2023-03-11T14:37:21;10.32;;;4.75;;
70866;SDS011;58487;53.474;49.470;2023-03-11T14:39:50;9.48;;;4.97;;
70866;SDS011;58487;53.474;49.470;2023-03-11T14:44:59;10.38;;;4.55;;
70866;SDS011;58487;53.474;49.470;2023-03-11T14:49:56;9.00;;;3.90;;
70866;SDS011;58487;53.474;49.470;2023-03-11T14:52:42;7.18;;;3.13;;
70866;SDS011;58487;53.474;49.470;2023-03-11T14:55:14;9.40;;;4.22;;
70866;SDS011;58487;53.474;49.470;2023-03-11T14:57:48;9.48;;;2.95;;
70866;SDS011;58487;53.474;49.470;2023-03-11T15:00:27;7.13;;;3.20;;
70866;SDS011;58487;53.474;49.470;2023-03-11T15:03:03;7.30;;;3.03;;
70866;SDS011;58487;53.474;49.470;2023-03-11T15:05:55;8.10;;;3.67;;
70866;SDS011;58487;53.474;49.470;2023-03-11T15:08:33;6.85;;;3.63;;
70866;SDS011;58487;53.474;49.470;2023-03-11T15:13:35;10.83;;;3.30;;
70866;SDS011;58487;53.474;49.470;2023-03-11T15:16:05;7.60;;;3.65;;
70866;SDS011;58487;53.474;49.470;2023-03-11T15:18:45;6.10;;;3.17;;
70866;SDS011;58487;53.474;49.470;2023-03-11T15:21:13;7.68;;;3.40;;
70866;SDS011;58487;53.474;49.470;2023-03-11T15:23:46;7.25;;;3.17;;
70866;SDS011;58487;53.474;49.470;2023-03-11T15:26:22;7.83;;;3.23;;
70866;SDS011;58487;53.474;49.470;2023-03-11T15:28:55;7.68;;;3.00;;
70866;SDS011;58487;53.474;49.470;2023-03-11T15:31:48;7.15;;;3.53;;
70866;SDS011;58487;53.474;49.470;2023-03-11T15:39:24;11.47;;;3.17;;
70866;SDS011;58487;53.474;49.470;2023-03-11T15:41:59;8.52;;;3.47;;
70866;SDS011;58487;53.474;49.470;2023-03-11T15:44:48;6.80;;;3.10;;
70866;SDS011;58487;53.474;49.470;2023-03-11T15:47:27;7.93;;;3.38;;
70866;SDS011;58487;53.474;49.470;2023-03-11T15:49:54;6.85;;;3.13;;
70866;SDS011;58487;53.474;49.470;2023-03-11T15:52:20;8.03;;;3.07;;
70866;SDS011;58487;53.474;49.470;2023-03-11T15:54:47;7.93;;;3.53;;
70866;SDS011;58487;53.474;49.470;2023-03-11T15:57:24;9.32;;;3.28;;
70866;SDS011;58487;53.474;49.470;2023-03-11T15:59:52;6.75;;;2.75;;
70866;SDS011;58487;53.474;49.470;2023-03-11T16:02:24;8.30;;;3.67;;
70866;SDS011;58487;53.474;49.470;2023-03-11T16:04:53;13.90;;;3.20;;
70866;SDS011;58487;53.474;49.470;2023-03-11T16:07:19;7.95;;;3.25;;
70866;SDS011;58487;53.474;49.470;2023-03-11T16:09:45;7.05;;;2.85;;
70866;SDS011;58487;53.474;49.470;2023-03-11T16:12:15;8.52;;;3.30;;
70866;SDS011;58487;53.474;49.470;2023-03-11T16:14:44;7.82;;;3.38;;
70866;SDS011;58487;53.474;49.470;2023-03-11T16:17:11;10.90;;;3.87;;
70866;SDS011;58487;53.474;49.470;2023-03-11T16:19:43;7.15;;;3.30;;
70866;SDS011;58487;53.474;49.470;2023-03-11T16:25:06;9.30;;;3.97;;
70866;SDS011;58487;53.474;49.470;2023-03-11T16:27:39;11.25;;;3.83;;
70866;SDS011;58487;53.474;49.470;2023-03-11T16:30:05;12.10;;;4.03;;
70866;SDS011;58487;53.474;49.470;2023-03-11T16:32:32;8.77;;;3.53;;
70866;SDS011;58487;53.474;49.470;2023-03-11T16:34:58;8.00;;;3.47;;
70866;SDS011;58487;53.474;49.470;2023-03-11T16:37:24;7.93;;;3.58;;
70866;SDS011;58487;53.474;49.470;2023-03-11T16:39:50;5.72;;;2.38;;
70866;SDS011;58487;53.474;49.470;2023-03-11T16:42:21;8.17;;;3.53;;